Terminal Aerodrome Forecast
Issued by NWS Kansas City/Pleasant Hill, MO

Home | Current Version | Previous Version | Graphics & Text | Print | Product List | Glossary On
Versions: 1 2 3 4 5 6 7 8 9 10 11 12 13 14 15 16 17 18
463
FTUS43 KEAX 221726
TAFMCI
TAF
KMCI 221726Z 2218/2318 31007KT P6SM BKN250
     FM230000 VRB03KT P6SM SKC
     FM231100 20007KT P6SM SKC
     FM231700 32012KT P6SM FEW200=

USA.gov is the U.S. government's official web portal to all federal, state and local government web resources and services.